sensor_id;sensor_type;location;lat;lon;timestamp;P1;durP1;ratioP1;P2;durP2;ratioP2
69730;SDS011;56996;48.138;11.538;2023-04-29T00:00:42;4.20;;;0.60;;
69730;SDS011;56996;48.138;11.538;2023-04-29T00:03:09;4.10;;;0.60;;
69730;SDS011;56996;48.138;11.538;2023-04-29T00:05:37;3.10;;;0.50;;
69730;SDS011;56996;48.138;11.538;2023-04-29T00:08:04;4.00;;;0.60;;
69730;SDS011;56996;48.138;11.538;2023-04-29T00:10:31;3.00;;;0.60;;
69730;SDS011;56996;48.138;11.538;2023-04-29T00:12:57;1.50;;;0.40;;
69730;SDS011;56996;48.138;11.538;2023-04-29T00:15:24;2.30;;;0.50;;
69730;SDS011;56996;48.138;11.538;2023-04-29T00:17:51;2.80;;;0.50;;
69730;SDS011;56996;48.138;11.538;2023-04-29T00:20:17;2.50;;;0.60;;
69730;SDS011;56996;48.138;11.538;2023-04-29T00:22:44;2.40;;;0.40;;
69730;SDS011;56996;48.138;11.538;2023-04-29T00:25:11;1.60;;;0.50;;
69730;SDS011;56996;48.138;11.538;2023-04-29T00:27:38;2.20;;;0.40;;
69730;SDS011;56996;48.138;11.538;2023-04-29T00:30:08;2.70;;;0.70;;
69730;SDS011;56996;48.138;11.538;2023-04-29T00:32:35;3.60;;;0.50;;
69730;SDS011;56996;48.138;11.538;2023-04-29T00:35:01;2.00;;;0.40;;
69730;SDS011;56996;48.138;11.538;2023-04-29T00:37:28;3.10;;;0.50;;
69730;SDS011;56996;48.138;11.538;2023-04-29T00:39:55;2.00;;;0.50;;
69730;SDS011;56996;48.138;11.538;2023-04-29T00:42:22;2.00;;;0.50;;
69730;SDS011;56996;48.138;11.538;2023-04-29T00:44:49;4.30;;;0.60;;
69730;SDS011;56996;48.138;11.538;2023-04-29T00:47:16;2.80;;;0.70;;
69730;SDS011;56996;48.138;11.538;2023-04-29T00:49:42;3.50;;;0.60;;
69730;SDS011;56996;48.138;11.538;2023-04-29T00:52:10;1.70;;;0.40;;
69730;SDS011;56996;48.138;11.538;2023-04-29T00:54:38;2.50;;;0.60;;
69730;SDS011;56996;48.138;11.538;2023-04-29T00:57:05;2.20;;;0.50;;
69730;SDS011;56996;48.138;11.538;2023-04-29T00:59:32;2.10;;;0.60;;
69730;SDS011;56996;48.138;11.538;2023-04-29T01:02:01;2.30;;;0.50;;
69730;SDS011;56996;48.138;11.538;2023-04-29T01:04:30;2.80;;;0.40;;
69730;SDS011;56996;48.138;11.538;2023-04-29T01:07:00;3.20;;;0.70;;
69730;SDS011;56996;48.138;11.538;2023-04-29T01:12:46;2.20;;;0.50;;
69730;SDS011;56996;48.138;11.538;2023-04-29T01:18:41;3.20;;;0.60;;
69730;SDS011;56996;48.138;11.538;2023-04-29T01:21:15;2.10;;;0.50;;
69730;SDS011;56996;48.138;11.538;2023-04-29T01:23:41;2.50;;;0.50;;
69730;SDS011;56996;48.138;11.538;2023-04-29T01:26:11;3.30;;;0.80;;
69730;SDS011;56996;48.138;11.538;2023-04-29T01:29:21;2.30;;;0.50;;
69730;SDS011;56996;48.138;11.538;2023-04-29T01:32:03;3.20;;;0.60;;
69730;SDS011;56996;48.138;11.538;2023-04-29T01:34:46;3.50;;;0.60;;
69730;SDS011;56996;48.138;11.538;2023-04-29T01:37:29;4.10;;;0.60;;
69730;SDS011;56996;48.138;11.538;2023-04-29T01:43:07;4.50;;;1.00;;
69730;SDS011;56996;48.138;11.538;2023-04-29T01:45:39;3.40;;;0.60;;
69730;SDS011;56996;48.138;11.538;2023-04-29T01:48:07;2.50;;;0.60;;
69730;SDS011;56996;48.138;11.538;2023-04-29T01:50:35;2.80;;;0.60;;
69730;SDS011;56996;48.138;11.538;2023-04-29T01:53:19;2.20;;;0.70;;
69730;SDS011;56996;48.138;11.538;2023-04-29T01:55:46;4.00;;;0.80;;
69730;SDS011;56996;48.138;11.538;2023-04-29T01:58:16;2.40;;;0.60;;
69730;SDS011;56996;48.138;11.538;2023-04-29T02:00:52;3.00;;;0.80;;
69730;SDS011;56996;48.138;11.538;2023-04-29T02:03:20;3.10;;;0.80;;
69730;SDS011;56996;48.138;11.538;2023-04-29T02:05:50;2.80;;;0.70;;
69730;SDS011;56996;48.138;11.538;2023-04-29T02:08:17;3.60;;;0.90;;
69730;SDS011;56996;48.138;11.538;2023-04-29T02:10:55;3.90;;;0.90;;
69730;SDS011;56996;48.138;11.538;2023-04-29T02:13:34;3.90;;;0.80;;
69730;SDS011;56996;48.138;11.538;2023-04-29T02:16:11;2.80;;;0.80;;
69730;SDS011;56996;48.138;11.538;2023-04-29T02:18:47;3.10;;;0.80;;
69730;SDS011;56996;48.138;11.538;2023-04-29T02:21:14;3.80;;;0.80;;
69730;SDS011;56996;48.138;11.538;2023-04-29T02:23:41;2.60;;;0.80;;
69730;SDS011;56996;48.138;11.538;2023-04-29T02:26:07;2.20;;;0.70;;
69730;SDS011;56996;48.138;11.538;2023-04-29T02:28:36;2.70;;;0.90;;
69730;SDS011;56996;48.138;11.538;2023-04-29T02:31:03;2.60;;;0.70;;
69730;SDS011;56996;48.138;11.538;2023-04-29T02:33:30;2.60;;;0.80;;
69730;SDS011;56996;48.138;11.538;2023-04-29T02:35:57;3.30;;;0.90;;
69730;SDS011;56996;48.138;11.538;2023-04-29T02:38:25;3.40;;;0.70;;
69730;SDS011;56996;48.138;11.538;2023-04-29T02:40:52;2.80;;;0.80;;
69730;SDS011;56996;48.138;11.538;2023-04-29T02:43:20;3.40;;;1.00;;
69730;SDS011;56996;48.138;11.538;2023-04-29T02:45:47;3.50;;;0.90;;
69730;SDS011;56996;48.138;11.538;2023-04-29T02:48:13;2.50;;;0.80;;
69730;SDS011;56996;48.138;11.538;2023-04-29T02:50:41;3.00;;;0.90;;
69730;SDS011;56996;48.138;11.538;2023-04-29T02:53:08;3.10;;;0.80;;
69730;SDS011;56996;48.138;11.538;2023-04-29T02:55:34;3.50;;;0.70;;
69730;SDS011;56996;48.138;11.538;2023-04-29T02:58:05;3.70;;;1.00;;
69730;SDS011;56996;48.138;11.538;2023-04-29T03:00:32;3.30;;;0.80;;
69730;SDS011;56996;48.138;11.538;2023-04-29T03:02:59;4.50;;;1.00;;
69730;SDS011;56996;48.138;11.538;2023-04-29T03:05:25;3.40;;;0.90;;
69730;SDS011;56996;48.138;11.538;2023-04-29T03:07:52;3.50;;;1.00;;
69730;SDS011;56996;48.138;11.538;2023-04-29T03:10:19;3.40;;;1.00;;
69730;SDS011;56996;48.138;11.538;2023-04-29T03:12:46;3.90;;;1.10;;
69730;SDS011;56996;48.138;11.538;2023-04-29T03:15:14;3.80;;;1.20;;
69730;SDS011;56996;48.138;11.538;2023-04-29T03:17:41;4.80;;;1.00;;
69730;SDS011;56996;48.138;11.538;2023-04-29T03:20:08;3.30;;;0.80;;
69730;SDS011;56996;48.138;11.538;2023-04-29T03:22:36;3.80;;;0.90;;
69730;SDS011;56996;48.138;11.538;2023-04-29T03:25:03;3.20;;;1.00;;
69730;SDS011;56996;48.138;11.538;2023-04-29T03:27:31;3.50;;;0.90;;
69730;SDS011;56996;48.138;11.538;2023-04-29T03:29:57;4.40;;;1.10;;
69730;SDS011;56996;48.138;11.538;2023-04-29T03:32:24;3.70;;;1.00;;
69730;SDS011;56996;48.138;11.538;2023-04-29T03:34:51;3.60;;;1.10;;
69730;SDS011;56996;48.138;11.538;2023-04-29T03:37:30;5.30;;;1.50;;
69730;SDS011;56996;48.138;11.538;2023-04-29T03:40:08;3.90;;;1.30;;
69730;SDS011;56996;48.138;11.538;2023-04-29T03:42:35;4.10;;;1.10;;
69730;SDS011;56996;48.138;11.538;2023-04-29T03:45:02;3.90;;;1.10;;
69730;SDS011;56996;48.138;11.538;2023-04-29T03:47:29;4.10;;;1.10;;
69730;SDS011;56996;48.138;11.538;2023-04-29T03:49:56;3.70;;;1.10;;
69730;SDS011;56996;48.138;11.538;2023-04-29T03:52:23;4.30;;;1.10;;
69730;SDS011;56996;48.138;11.538;2023-04-29T03:54:50;3.40;;;1.00;;
69730;SDS011;56996;48.138;11.538;2023-04-29T03:57:17;4.60;;;1.20;;
69730;SDS011;56996;48.138;11.538;2023-04-29T03:59:43;4.30;;;1.30;;
69730;SDS011;56996;48.138;11.538;2023-04-29T04:02:11;5.70;;;1.40;;
69730;SDS011;56996;48.138;11.538;2023-04-29T04:04:38;5.00;;;1.50;;
69730;SDS011;56996;48.138;11.538;2023-04-29T04:07:07;5.00;;;1.30;;
69730;SDS011;56996;48.138;11.538;2023-04-29T04:09:53;5.00;;;1.30;;
69730;SDS011;56996;48.138;11.538;2023-04-29T04:12:20;5.10;;;1.40;;
69730;SDS011;56996;48.138;11.538;2023-04-29T04:14:47;4.10;;;1.20;;
69730;SDS011;56996;48.138;11.538;2023-04-29T04:17:14;4.70;;;1.50;;
69730;SDS011;56996;48.138;11.538;2023-04-29T04:19:41;5.20;;;1.60;;
69730;SDS011;56996;48.138;11.538;2023-04-29T04:22:07;6.10;;;1.70;;
69730;SDS011;56996;48.138;11.538;2023-04-29T04:24:36;5.30;;;1.30;;
69730;SDS011;56996;48.138;11.538;2023-04-29T04:27:03;4.80;;;1.60;;
69730;SDS011;56996;48.138;11.538;2023-04-29T04:29:34;4.80;;;1.50;;
69730;SDS011;56996;48.138;11.538;2023-04-29T04:32:07;5.30;;;1.50;;
69730;SDS011;56996;48.138;11.538;2023-04-29T04:34:34;7.30;;;2.80;;
69730;SDS011;56996;48.138;11.538;2023-04-29T04:37:00;5.30;;;1.80;;
69730;SDS011;56996;48.138;11.538;2023-04-29T04:39:28;5.10;;;1.60;;
69730;SDS011;56996;48.138;11.538;2023-04-29T04:41:55;4.20;;;1.40;;
69730;SDS011;56996;48.138;11.538;2023-04-29T04:44:22;7.60;;;2.90;;
69730;SDS011;56996;48.138;11.538;2023-04-29T04:46:58;4.70;;;1.50;;
69730;SDS011;56996;48.138;11.538;2023-04-29T04:49:39;4.80;;;1.60;;
69730;SDS011;56996;48.138;11.538;2023-04-29T04:52:06;6.40;;;2.10;;
69730;SDS011;56996;48.138;11.538;2023-04-29T04:54:32;4.90;;;1.50;;
69730;SDS011;56996;48.138;11.538;2023-04-29T04:57:05;5.90;;;1.60;;
69730;SDS011;56996;48.138;11.538;2023-04-29T04:59:32;4.70;;;1.60;;
69730;SDS011;56996;48.138;11.538;2023-04-29T05:01:59;5.20;;;1.80;;
69730;SDS011;56996;48.138;11.538;2023-04-29T05:04:26;4.50;;;1.40;;
69730;SDS011;56996;48.138;11.538;2023-04-29T05:06:53;5.60;;;1.50;;
69730;SDS011;56996;48.138;11.538;2023-04-29T05:09:20;4.40;;;1.50;;
69730;SDS011;56996;48.138;11.538;2023-04-29T05:11:46;4.70;;;1.40;;
69730;SDS011;56996;48.138;11.538;2023-04-29T05:14:15;4.10;;;1.40;;
69730;SDS011;56996;48.138;11.538;2023-04-29T05:16:42;4.20;;;1.20;;
69730;SDS011;56996;48.138;11.538;2023-04-29T05:19:11;5.90;;;1.70;;
69730;SDS011;56996;48.138;11.538;2023-04-29T05:21:38;3.80;;;1.30;;
69730;SDS011;56996;48.138;11.538;2023-04-29T05:24:06;4.30;;;1.50;;
69730;SDS011;56996;48.138;11.538;2023-04-29T05:26:33;4.10;;;1.30;;
69730;SDS011;56996;48.138;11.538;2023-04-29T05:29:00;5.00;;;1.50;;
69730;SDS011;56996;48.138;11.538;2023-04-29T05:31:28;4.50;;;1.60;;
69730;SDS011;56996;48.138;11.538;2023-04-29T05:33:55;4.40;;;1.40;;
69730;SDS011;56996;48.138;11.538;2023-04-29T05:36:23;6.00;;;1.70;;
69730;SDS011;56996;48.138;11.538;2023-04-29T05:38:49;4.50;;;1.40;;
69730;SDS011;56996;48.138;11.538;2023-04-29T05:41:16;5.30;;;1.50;;
69730;SDS011;56996;48.138;11.538;2023-04-29T05:44:03;4.00;;;1.30;;
69730;SDS011;56996;48.138;11.538;2023-04-29T05:46:30;3.40;;;1.10;;
69730;SDS011;56996;48.138;11.538;2023-04-29T05:48:57;5.00;;;1.40;;
69730;SDS011;56996;48.138;11.538;2023-04-29T05:51:24;5.10;;;1.50;;
69730;SDS011;56996;48.138;11.538;2023-04-29T05:53:51;5.20;;;1.30;;
69730;SDS011;56996;48.138;11.538;2023-04-29T05:56:18;3.60;;;1.20;;
69730;SDS011;56996;48.138;11.538;2023-04-29T05:58:45;3.50;;;1.20;;
69730;SDS011;56996;48.138;11.538;2023-04-29T06:01:12;5.40;;;1.50;;
69730;SDS011;56996;48.138;11.538;2023-04-29T06:03:38;5.10;;;1.30;;
69730;SDS011;56996;48.138;11.538;2023-04-29T06:06:41;3.20;;;1.10;;
69730;SDS011;56996;48.138;11.538;2023-04-29T06:09:27;3.80;;;1.20;;
69730;SDS011;56996;48.138;11.538;2023-04-29T06:11:58;4.00;;;1.20;;
69730;SDS011;56996;48.138;11.538;2023-04-29T06:14:24;4.00;;;1.50;;
69730;SDS011;56996;48.138;11.538;2023-04-29T06:16:51;4.80;;;1.70;;
69730;SDS011;56996;48.138;11.538;2023-04-29T06:19:19;4.80;;;1.80;;
69730;SDS011;56996;48.138;11.538;2023-04-29T06:21:46;4.30;;;1.40;;
69730;SDS011;56996;48.138;11.538;2023-04-29T06:24:13;4.30;;;1.60;;
69730;SDS011;56996;48.138;11.538;2023-04-29T06:26:39;4.50;;;1.40;;
69730;SDS011;56996;48.138;11.538;2023-04-29T06:29:06;4.30;;;1.50;;
69730;SDS011;56996;48.138;11.538;2023-04-29T06:31:34;4.90;;;1.50;;
69730;SDS011;56996;48.138;11.538;2023-04-29T06:34:02;4.40;;;1.70;;
69730;SDS011;56996;48.138;11.538;2023-04-29T06:36:30;4.10;;;1.50;;
69730;SDS011;56996;48.138;11.538;2023-04-29T06:39:26;5.20;;;1.70;;
69730;SDS011;56996;48.138;11.538;2023-04-29T06:42:16;4.70;;;1.80;;
69730;SDS011;56996;48.138;11.538;2023-04-29T06:45:04;6.90;;;1.90;;
69730;SDS011;56996;48.138;11.538;2023-04-29T06:47:51;5.60;;;2.00;;
69730;SDS011;56996;48.138;11.538;2023-04-29T06:50:31;6.40;;;2.40;;
69730;SDS011;56996;48.138;11.538;2023-04-29T06:52:59;5.90;;;2.30;;
69730;SDS011;56996;48.138;11.538;2023-04-29T06:55:25;6.50;;;2.20;;
69730;SDS011;56996;48.138;11.538;2023-04-29T06:57:52;6.20;;;2.30;;
69730;SDS011;56996;48.138;11.538;2023-04-29T07:00:19;6.30;;;2.40;;
69730;SDS011;56996;48.138;11.538;2023-04-29T07:02:48;5.00;;;2.20;;
69730;SDS011;56996;48.138;11.538;2023-04-29T07:05:15;6.40;;;2.40;;
69730;SDS011;56996;48.138;11.538;2023-04-29T07:07:41;5.50;;;2.20;;
69730;SDS011;56996;48.138;11.538;2023-04-29T07:10:08;5.20;;;2.30;;
69730;SDS011;56996;48.138;11.538;2023-04-29T07:12:35;5.80;;;2.30;;
69730;SDS011;56996;48.138;11.538;2023-04-29T07:15:03;5.20;;;2.00;;
69730;SDS011;56996;48.138;11.538;2023-04-29T07:17:29;5.70;;;2.30;;
69730;SDS011;56996;48.138;11.538;2023-04-29T07:19:57;5.40;;;2.10;;
69730;SDS011;56996;48.138;11.538;2023-04-29T07:22:23;5.60;;;2.20;;
69730;SDS011;56996;48.138;11.538;2023-04-29T07:24:54;5.40;;;2.20;;
69730;SDS011;56996;48.138;11.538;2023-04-29T07:27:22;5.90;;;2.50;;
69730;SDS011;56996;48.138;11.538;2023-04-29T07:29:50;5.60;;;2.30;;
69730;SDS011;56996;48.138;11.538;2023-04-29T07:32:17;5.70;;;2.40;;
69730;SDS011;56996;48.138;11.538;2023-04-29T07:34:44;5.90;;;2.20;;
69730;SDS011;56996;48.138;11.538;2023-04-29T07:37:10;5.50;;;2.00;;
69730;SDS011;56996;48.138;11.538;2023-04-29T07:39:38;6.00;;;2.40;;
69730;SDS011;56996;48.138;11.538;2023-04-29T07:42:04;7.40;;;2.50;;
69730;SDS011;56996;48.138;11.538;2023-04-29T07:44:31;5.70;;;2.30;;
69730;SDS011;56996;48.138;11.538;2023-04-29T07:46:58;5.70;;;2.50;;
69730;SDS011;56996;48.138;11.538;2023-04-29T07:49:24;5.60;;;2.30;;
69730;SDS011;56996;48.138;11.538;2023-04-29T07:51:51;5.50;;;1.90;;
69730;SDS011;56996;48.138;11.538;2023-04-29T07:54:18;5.50;;;1.90;;
69730;SDS011;56996;48.138;11.538;2023-04-29T07:56:45;5.50;;;2.40;;
69730;SDS011;56996;48.138;11.538;2023-04-29T07:59:11;5.90;;;2.50;;
69730;SDS011;56996;48.138;11.538;2023-04-29T08:01:41;5.60;;;2.30;;
69730;SDS011;56996;48.138;11.538;2023-04-29T08:04:08;5.40;;;1.80;;
69730;SDS011;56996;48.138;11.538;2023-04-29T08:06:44;4.80;;;1.90;;
69730;SDS011;56996;48.138;11.538;2023-04-29T08:09:12;5.40;;;2.00;;
69730;SDS011;56996;48.138;11.538;2023-04-29T08:11:41;5.80;;;2.20;;
69730;SDS011;56996;48.138;11.538;2023-04-29T08:14:11;6.60;;;1.80;;
69730;SDS011;56996;48.138;11.538;2023-04-29T08:16:37;5.20;;;2.30;;
69730;SDS011;56996;48.138;11.538;2023-04-29T08:19:04;4.60;;;2.00;;
69730;SDS011;56996;48.138;11.538;2023-04-29T08:21:31;5.00;;;1.90;;
69730;SDS011;56996;48.138;11.538;2023-04-29T08:23:58;5.70;;;1.90;;
69730;SDS011;56996;48.138;11.538;2023-04-29T08:26:24;6.20;;;2.10;;
69730;SDS011;56996;48.138;11.538;2023-04-29T08:28:52;4.60;;;1.90;;
69730;SDS011;56996;48.138;11.538;2023-04-29T08:31:20;6.30;;;2.00;;
69730;SDS011;56996;48.138;11.538;2023-04-29T08:33:47;5.80;;;1.80;;
69730;SDS011;56996;48.138;11.538;2023-04-29T08:36:14;4.50;;;1.70;;
69730;SDS011;56996;48.138;11.538;2023-04-29T08:38:41;4.90;;;1.80;;
69730;SDS011;56996;48.138;11.538;2023-04-29T08:41:07;4.60;;;2.10;;
69730;SDS011;56996;48.138;11.538;2023-04-29T08:43:38;4.50;;;1.80;;
69730;SDS011;56996;48.138;11.538;2023-04-29T08:46:08;4.80;;;1.70;;
69730;SDS011;56996;48.138;11.538;2023-04-29T08:48:36;4.20;;;1.80;;
69730;SDS011;56996;48.138;11.538;2023-04-29T08:51:11;5.20;;;2.00;;
69730;SDS011;56996;48.138;11.538;2023-04-29T08:53:39;4.10;;;1.90;;
69730;SDS011;56996;48.138;11.538;2023-04-29T08:56:12;4.50;;;1.90;;
69730;SDS011;56996;48.138;11.538;2023-04-29T08:58:49;3.90;;;1.90;;
69730;SDS011;56996;48.138;11.538;2023-04-29T09:01:21;4.10;;;1.50;;
69730;SDS011;56996;48.138;11.538;2023-04-29T09:03:59;3.80;;;1.70;;
69730;SDS011;56996;48.138;11.538;2023-04-29T09:06:29;4.50;;;1.60;;
69730;SDS011;56996;48.138;11.538;2023-04-29T09:08:59;4.40;;;1.50;;
69730;SDS011;56996;48.138;11.538;2023-04-29T09:11:29;4.60;;;1.60;;
69730;SDS011;56996;48.138;11.538;2023-04-29T09:13:59;4.70;;;1.90;;
69730;SDS011;56996;48.138;11.538;2023-04-29T09:16:27;3.70;;;1.70;;
69730;SDS011;56996;48.138;11.538;2023-04-29T09:18:55;4.40;;;1.60;;
69730;SDS011;56996;48.138;11.538;2023-04-29T09:21:26;4.10;;;1.60;;
69730;SDS011;56996;48.138;11.538;2023-04-29T09:23:57;4.00;;;1.80;;
69730;SDS011;56996;48.138;11.538;2023-04-29T09:26:25;4.50;;;1.80;;
69730;SDS011;56996;48.138;11.538;2023-04-29T09:29:11;5.00;;;1.60;;
69730;SDS011;56996;48.138;11.538;2023-04-29T09:31:44;3.70;;;1.60;;
69730;SDS011;56996;48.138;11.538;2023-04-29T09:34:12;3.60;;;1.50;;
69730;SDS011;56996;48.138;11.538;2023-04-29T09:39:16;4.60;;;1.50;;
69730;SDS011;56996;48.138;11.538;2023-04-29T09:44:25;5.10;;;1.70;;
69730;SDS011;56996;48.138;11.538;2023-04-29T09:47:06;4.90;;;2.30;;
69730;SDS011;56996;48.138;11.538;2023-04-29T09:49:40;3.90;;;1.40;;
69730;SDS011;56996;48.138;11.538;2023-04-29T09:52:13;4.50;;;1.60;;
69730;SDS011;56996;48.138;11.538;2023-04-29T09:54:43;3.00;;;1.50;;
69730;SDS011;56996;48.138;11.538;2023-04-29T09:57:11;3.50;;;1.40;;
69730;SDS011;56996;48.138;11.538;2023-04-29T09:59:41;3.70;;;1.60;;
69730;SDS011;56996;48.138;11.538;2023-04-29T10:02:17;5.00;;;1.60;;
69730;SDS011;56996;48.138;11.538;2023-04-29T10:04:46;5.50;;;1.30;;
69730;SDS011;56996;48.138;11.538;2023-04-29T10:07:16;3.60;;;1.30;;
69730;SDS011;56996;48.138;11.538;2023-04-29T10:09:46;2.70;;;1.10;;
69730;SDS011;56996;48.138;11.538;2023-04-29T10:12:18;3.90;;;1.20;;
69730;SDS011;56996;48.138;11.538;2023-04-29T10:14:51;3.60;;;1.30;;
69730;SDS011;56996;48.138;11.538;2023-04-29T10:17:31;3.70;;;1.30;;
69730;SDS011;56996;48.138;11.538;2023-04-29T10:20:03;3.70;;;1.30;;
69730;SDS011;56996;48.138;11.538;2023-04-29T10:22:48;4.70;;;1.80;;
69730;SDS011;56996;48.138;11.538;2023-04-29T10:25:17;5.30;;;1.60;;
69730;SDS011;56996;48.138;11.538;2023-04-29T10:27:46;5.20;;;1.70;;
69730;SDS011;56996;48.138;11.538;2023-04-29T10:30:16;6.10;;;1.50;;
69730;SDS011;56996;48.138;11.538;2023-04-29T10:32:44;5.30;;;1.80;;
69730;SDS011;56996;48.138;11.538;2023-04-29T10:35:19;4.30;;;1.60;;
69730;SDS011;56996;48.138;11.538;2023-04-29T10:37:51;4.40;;;1.40;;
69730;SDS011;56996;48.138;11.538;2023-04-29T10:40:30;4.70;;;1.60;;
69730;SDS011;56996;48.138;11.538;2023-04-29T10:43:04;5.10;;;1.80;;
69730;SDS011;56996;48.138;11.538;2023-04-29T10:45:31;4.90;;;1.80;;
69730;SDS011;56996;48.138;11.538;2023-04-29T10:50:32;3.80;;;1.30;;
69730;SDS011;56996;48.138;11.538;2023-04-29T10:53:19;5.30;;;1.90;;
69730;SDS011;56996;48.138;11.538;2023-04-29T10:55:56;4.70;;;1.40;;
69730;SDS011;56996;48.138;11.538;2023-04-29T11:01:09;5.10;;;1.50;;
69730;SDS011;56996;48.138;11.538;2023-04-29T11:04:00;4.40;;;1.70;;
69730;SDS011;56996;48.138;11.538;2023-04-29T11:09:07;4.00;;;1.50;;
69730;SDS011;56996;48.138;11.538;2023-04-29T11:12:02;4.60;;;1.40;;
69730;SDS011;56996;48.138;11.538;2023-04-29T11:14:35;3.70;;;1.30;;
69730;SDS011;56996;48.138;11.538;2023-04-29T11:17:12;5.10;;;1.40;;
69730;SDS011;56996;48.138;11.538;2023-04-29T11:19:41;4.80;;;1.30;;
69730;SDS011;56996;48.138;11.538;2023-04-29T11:24:56;3.90;;;1.40;;
69730;SDS011;56996;48.138;11.538;2023-04-29T11:27:33;4.70;;;1.60;;
69730;SDS011;56996;48.138;11.538;2023-04-29T11:30:04;5.20;;;1.30;;
69730;SDS011;56996;48.138;11.538;2023-04-29T11:32:35;3.20;;;1.20;;
69730;SDS011;56996;48.138;11.538;2023-04-29T11:35:10;3.40;;;0.90;;
69730;SDS011;56996;48.138;11.538;2023-04-29T11:37:39;4.30;;;1.50;;
69730;SDS011;56996;48.138;11.538;2023-04-29T11:40:08;3.40;;;1.20;;
69730;SDS011;56996;48.138;11.538;2023-04-29T11:42:40;4.60;;;1.30;;
69730;SDS011;56996;48.138;11.538;2023-04-29T11:45:09;5.10;;;1.40;;
69730;SDS011;56996;48.138;11.538;2023-04-29T11:47:41;3.10;;;0.90;;
69730;SDS011;56996;48.138;11.538;2023-04-29T11:50:13;3.80;;;1.30;;
69730;SDS011;56996;48.138;11.538;2023-04-29T11:52:47;3.20;;;1.00;;
69730;SDS011;56996;48.138;11.538;2023-04-29T11:55:14;4.00;;;1.10;;
69730;SDS011;56996;48.138;11.538;2023-04-29T11:57:41;3.50;;;1.10;;
69730;SDS011;56996;48.138;11.538;2023-04-29T12:00:10;2.80;;;1.00;;
69730;SDS011;56996;48.138;11.538;2023-04-29T12:02:43;2.10;;;0.90;;
69730;SDS011;56996;48.138;11.538;2023-04-29T12:05:11;4.00;;;1.20;;
69730;SDS011;56996;48.138;11.538;2023-04-29T12:07:43;3.30;;;1.00;;
69730;SDS011;56996;48.138;11.538;2023-04-29T12:10:11;3.50;;;1.00;;
69730;SDS011;56996;48.138;11.538;2023-04-29T12:12:38;2.60;;;1.00;;
69730;SDS011;56996;48.138;11.538;2023-04-29T12:15:07;3.60;;;1.20;;
69730;SDS011;56996;48.138;11.538;2023-04-29T12:17:36;3.40;;;1.20;;
69730;SDS011;56996;48.138;11.538;2023-04-29T12:20:04;4.10;;;1.30;;
69730;SDS011;56996;48.138;11.538;2023-04-29T12:22:32;4.10;;;1.20;;
69730;SDS011;56996;48.138;11.538;2023-04-29T12:25:02;2.50;;;0.90;;
69730;SDS011;56996;48.138;11.538;2023-04-29T12:27:29;3.00;;;1.00;;
69730;SDS011;56996;48.138;11.538;2023-04-29T12:29:56;3.40;;;1.10;;
69730;SDS011;56996;48.138;11.538;2023-04-29T12:32:24;4.20;;;1.10;;
69730;SDS011;56996;48.138;11.538;2023-04-29T12:34:51;3.50;;;1.20;;
69730;SDS011;56996;48.138;11.538;2023-04-29T12:37:20;3.50;;;1.20;;
69730;SDS011;56996;48.138;11.538;2023-04-29T12:39:53;3.80;;;1.10;;
69730;SDS011;56996;48.138;11.538;2023-04-29T12:42:21;3.50;;;1.10;;
69730;SDS011;56996;48.138;11.538;2023-04-29T12:44:48;3.70;;;1.40;;
69730;SDS011;56996;48.138;11.538;2023-04-29T12:47:15;3.70;;;1.20;;
69730;SDS011;56996;48.138;11.538;2023-04-29T12:49:46;3.60;;;1.20;;
69730;SDS011;56996;48.138;11.538;2023-04-29T12:52:14;2.90;;;1.10;;
69730;SDS011;56996;48.138;11.538;2023-04-29T12:54:41;2.90;;;1.10;;
69730;SDS011;56996;48.138;11.538;2023-04-29T12:57:10;4.70;;;1.40;;
69730;SDS011;56996;48.138;11.538;2023-04-29T12:59:38;3.80;;;1.10;;
69730;SDS011;56996;48.138;11.538;2023-04-29T13:02:07;3.60;;;1.10;;
69730;SDS011;56996;48.138;11.538;2023-04-29T13:04:33;3.20;;;1.20;;
69730;SDS011;56996;48.138;11.538;2023-04-29T13:07:01;4.20;;;1.10;;
69730;SDS011;56996;48.138;11.538;2023-04-29T13:09:29;4.10;;;1.20;;
69730;SDS011;56996;48.138;11.538;2023-04-29T13:11:56;2.70;;;0.90;;
69730;SDS011;56996;48.138;11.538;2023-04-29T13:14:24;2.70;;;0.90;;
69730;SDS011;56996;48.138;11.538;2023-04-29T13:16:51;2.70;;;1.00;;
69730;SDS011;56996;48.138;11.538;2023-04-29T13:19:17;2.60;;;0.90;;
69730;SDS011;56996;48.138;11.538;2023-04-29T13:22:04;3.80;;;1.20;;
69730;SDS011;56996;48.138;11.538;2023-04-29T13:24:32;2.70;;;1.00;;
69730;SDS011;56996;48.138;11.538;2023-04-29T13:27:01;3.30;;;1.00;;
69730;SDS011;56996;48.138;11.538;2023-04-29T13:29:29;3.90;;;1.10;;
69730;SDS011;56996;48.138;11.538;2023-04-29T13:31:56;3.30;;;1.10;;
69730;SDS011;56996;48.138;11.538;2023-04-29T13:34:23;3.60;;;1.10;;
69730;SDS011;56996;48.138;11.538;2023-04-29T13:36:49;3.90;;;1.10;;
69730;SDS011;56996;48.138;11.538;2023-04-29T13:39:16;2.80;;;0.90;;
69730;SDS011;56996;48.138;11.538;2023-04-29T13:41:45;2.70;;;0.80;;
69730;SDS011;56996;48.138;11.538;2023-04-29T13:44:12;2.80;;;0.90;;
69730;SDS011;56996;48.138;11.538;2023-04-29T13:46:42;3.00;;;1.00;;
69730;SDS011;56996;48.138;11.538;2023-04-29T13:49:10;3.30;;;0.90;;
69730;SDS011;56996;48.138;11.538;2023-04-29T13:51:57;2.80;;;0.80;;
69730;SDS011;56996;48.138;11.538;2023-04-29T13:54:26;2.40;;;0.70;;
69730;SDS011;56996;48.138;11.538;2023-04-29T13:57:13;4.40;;;1.00;;
69730;SDS011;56996;48.138;11.538;2023-04-29T13:59:59;2.30;;;0.80;;
69730;SDS011;56996;48.138;11.538;2023-04-29T14:02:37;3.00;;;0.90;;
69730;SDS011;56996;48.138;11.538;2023-04-29T14:05:04;3.80;;;0.90;;
69730;SDS011;56996;48.138;11.538;2023-04-29T14:07:32;1.80;;;0.60;;
69730;SDS011;56996;48.138;11.538;2023-04-29T14:09:58;2.80;;;0.80;;
69730;SDS011;56996;48.138;11.538;2023-04-29T14:12:25;3.00;;;0.80;;
69730;SDS011;56996;48.138;11.538;2023-04-29T14:14:52;2.40;;;0.70;;
69730;SDS011;56996;48.138;11.538;2023-04-29T14:17:19;2.60;;;0.80;;
69730;SDS011;56996;48.138;11.538;2023-04-29T14:19:45;3.70;;;1.20;;
69730;SDS011;56996;48.138;11.538;2023-04-29T14:22:12;3.00;;;0.80;;
69730;SDS011;56996;48.138;11.538;2023-04-29T14:24:39;3.10;;;1.00;;
69730;SDS011;56996;48.138;11.538;2023-04-29T14:27:05;2.80;;;1.00;;
69730;SDS011;56996;48.138;11.538;2023-04-29T14:29:32;2.80;;;1.00;;
69730;SDS011;56996;48.138;11.538;2023-04-29T14:31:59;3.40;;;1.00;;
69730;SDS011;56996;48.138;11.538;2023-04-29T14:34:25;5.10;;;1.80;;
69730;SDS011;56996;48.138;11.538;2023-04-29T14:36:52;3.80;;;1.20;;
69730;SDS011;56996;48.138;11.538;2023-04-29T14:39:19;2.90;;;1.00;;
69730;SDS011;56996;48.138;11.538;2023-04-29T14:41:45;3.70;;;1.10;;
69730;SDS011;56996;48.138;11.538;2023-04-29T14:44:14;3.40;;;1.10;;
69730;SDS011;56996;48.138;11.538;2023-04-29T14:46:40;3.40;;;1.20;;
69730;SDS011;56996;48.138;11.538;2023-04-29T14:49:07;3.40;;;1.20;;
69730;SDS011;56996;48.138;11.538;2023-04-29T14:51:34;3.30;;;1.10;;
69730;SDS011;56996;48.138;11.538;2023-04-29T14:54:00;3.50;;;1.10;;
69730;SDS011;56996;48.138;11.538;2023-04-29T14:56:27;3.70;;;1.10;;
69730;SDS011;56996;48.138;11.538;2023-04-29T14:58:55;2.30;;;0.90;;
69730;SDS011;56996;48.138;11.538;2023-04-29T15:01:22;2.50;;;1.10;;
69730;SDS011;56996;48.138;11.538;2023-04-29T15:03:49;3.90;;;1.00;;
69730;SDS011;56996;48.138;11.538;2023-04-29T15:06:16;3.00;;;1.00;;
69730;SDS011;56996;48.138;11.538;2023-04-29T15:08:42;2.40;;;0.80;;
69730;SDS011;56996;48.138;11.538;2023-04-29T15:11:09;2.80;;;1.00;;
69730;SDS011;56996;48.138;11.538;2023-04-29T15:13:36;4.00;;;0.90;;